Time;durP1;ratioP1;P1;durP2;ratioP2;P2;SDS_P1;SDS_P2;PMS_P1;PMS_P2;Temp;Humidity;BMP_temperature;BMP_pressure;BME280_temperature;BME280_humidity;BME280_pressure;Samples;Min_cycle;Max_cycle;Signal;HPM_P1;HPM_P2
2022/03/15 00:00:06;;;;;;;0.38;0.20;;;;;;;-2.70;48.99;101328.00;5034388;28;20486;-79
2022/03/15 00:02:40;;;;;;;0.30;0.30;;;;;;;-2.66;49.25;101343.59;5034002;28;20433;-78
2022/03/15 00:05:07;;;;;;;0.35;0.35;;;;;;;-2.64;49.24;101339.50;5035062;28;20080;-81
2022/03/15 00:07:34;;;;;;;0.20;0.20;;;;;;;-2.71;49.11;101344.13;5035002;28;20101;-81
2022/03/15 00:10:02;;;;;;;0.30;0.30;;;;;;;-2.84;49.21;101338.78;5036974;28;20124;-82
2022/03/15 00:12:29;;;;;;;0.43;0.30;;;;;;;-2.71;49.01;101362.03;5048636;28;20077;-80
2022/03/15 00:14:56;;;;;;;1.75;0.73;;;;;;;-2.71;48.69;101353.44;5048075;28;20077;-78
2022/03/15 00:17:23;;;;;;;0.57;0.30;;;;;;;-2.85;48.79;101339.56;5049313;28;20050;-79
2022/03/15 00:19:51;;;;;;;0.32;0.20;;;;;;;-2.76;48.95;101355.63;5034529;28;20123;-78
2022/03/15 00:22:18;;;;;;;0.30;0.30;;;;;;;-2.82;48.88;101357.69;5034697;28;20115;-78
2022/03/15 00:24:45;;;;;;;1.45;0.52;;;;;;;-2.85;48.88;101344.69;5034558;28;20053;-79
2022/03/15 00:27:12;;;;;;;4.45;1.67;;;;;;;-2.89;48.72;101357.97;5034584;28;20087;-79
2022/03/15 00:29:41;;;;;;;4.25;1.83;;;;;;;-2.83;48.68;101366.16;5034105;28;20085;-79
2022/03/15 00:32:08;;;;;;;5.72;1.90;;;;;;;-2.80;49.02;101383.41;5034410;28;20061;-79
2022/03/15 00:34:35;;;;;;;8.18;1.77;;;;;;;-3.01;49.19;101341.63;5034304;28;20053;-79
2022/03/15 00:37:02;;;;;;;4.00;1.60;;;;;;;-2.86;49.50;101377.78;5034139;28;20054;-79
2022/03/15 00:39:35;;;;;;;4.20;1.45;;;;;;;-2.94;49.75;101380.63;5033438;28;20052;-79
2022/03/15 00:42:02;;;;;;;3.58;1.35;;;;;;;-2.95;50.11;101377.94;5034238;28;20123;-79
2022/03/15 00:44:29;;;;;;;3.15;1.30;;;;;;;-2.97;50.24;101390.63;5034098;28;20173;-79
2022/03/15 00:46:56;;;;;;;1.83;1.10;;;;;;;-3.00;50.35;101399.69;5033876;28;20052;-80
2022/03/15 00:49:24;;;;;;;6.25;1.40;;;;;;;-3.10;50.48;101378.50;5033834;28;20445;-79
2022/03/15 00:51:53;;;;;;;2.15;0.90;;;;;;;-3.04;50.74;101395.97;5033907;28;20144;-78
2022/03/15 00:54:23;;;;;;;1.83;0.90;;;;;;;-3.13;51.16;101385.00;5033904;28;20064;-79
2022/03/15 00:56:51;;;;;;;10.30;1.33;;;;;;;-3.22;51.17;101367.25;5033549;28;20506;-79
2022/03/15 00:59:18;;;;;;;2.10;1.02;;;;;;;-3.24;51.18;101393.47;5034228;28;20099;-79
2022/03/15 01:01:46;;;;;;;1.35;0.90;;;;;;;-3.32;51.76;101382.59;5033121;28;20627;-80
2022/03/15 01:04:14;;;;;;;1.77;0.98;;;;;;;-3.23;51.39;101388.44;5034400;28;20053;-79
2022/03/15 01:06:42;;;;;;;3.30;0.70;;;;;;;-3.25;51.61;101407.88;5034604;28;20094;-78
2022/03/15 01:09:10;;;;;;;1.85;0.88;;;;;;;-3.31;51.77;101399.72;5034891;28;20064;-79
2022/03/15 01:11:37;;;;;;;2.50;1.08;;;;;;;-3.29;51.90;101416.09;5036157;28;20144;-78
2022/03/15 01:14:04;;;;;;;3.50;0.90;;;;;;;-3.31;51.87;101409.94;5032914;28;20045;-80
2022/03/15 01:16:31;;;;;;;1.00;0.73;;;;;;;-3.35;52.13;101406.22;5034044;28;20057;-79
2022/03/15 01:18:58;;;;;;;1.92;0.55;;;;;;;-3.40;52.09;101404.97;5035138;28;20087;-79
2022/03/15 01:21:26;;;;;;;1.52;0.88;;;;;;;-3.45;51.86;101393.44;5037185;28;20068;-79
2022/03/15 01:23:53;;;;;;;0.50;0.50;;;;;;;-3.39;52.22;101423.75;5043271;28;20114;-77
2022/03/15 01:26:20;;;;;;;0.93;0.57;;;;;;;-3.45;52.59;101426.66;5034177;28;20061;-79
2022/03/15 01:28:52;;;;;;;2.42;0.60;;;;;;;-3.38;52.46;101433.19;5033631;28;20073;-80
2022/03/15 01:31:19;;;;;;;1.55;0.60;;;;;;;-3.44;52.48;101431.03;5032184;28;20057;-79
2022/03/15 01:33:46;;;;;;;0.85;0.50;;;;;;;-3.40;52.53;101434.72;5032096;28;20073;-79
2022/03/15 01:36:13;;;;;;;1.73;0.45;;;;;;;-3.46;52.81;101427.44;5033344;28;20053;-79
2022/03/15 01:38:40;;;;;;;1.70;0.52;;;;;;;-3.55;52.31;101422.47;5033617;28;20111;-79
2022/03/15 01:41:07;;;;;;;1.45;0.50;;;;;;;-3.65;52.80;101413.88;5033662;28;20050;-78
2022/03/15 01:43:34;;;;;;;0.60;0.60;;;;;;;-3.61;52.94;101428.72;5033825;28;20053;-79
2022/03/15 01:46:01;;;;;;;1.33;0.45;;;;;;;-3.66;52.79;101433.41;5033604;28;20058;-78
2022/03/15 01:48:28;;;;;;;1.58;0.40;;;;;;;-3.67;53.01;101452.06;5032384;28;20053;-80
2022/03/15 01:50:55;;;;;;;2.58;0.60;;;;;;;-3.70;53.43;101454.34;5031627;28;20076;-79
2022/03/15 01:53:26;;;;;;;1.25;0.47;;;;;;;-3.89;53.25;101417.78;5032533;28;20045;-80
2022/03/15 01:55:53;;;;;;;0.65;0.50;;;;;;;-3.71;53.18;101468.78;5033846;28;20494;-78
2022/03/15 01:58:22;;;;;;;1.48;0.70;;;;;;;-3.74;53.44;101470.19;5032945;28;20053;-80
2022/03/15 02:00:49;;;;;;;0.80;0.50;;;;;;;-3.78;53.19;101463.91;5032428;28;20063;-81
2022/03/15 02:03:17;;;;;;;1.30;0.50;;;;;;;-3.81;53.53;101470.41;5031740;28;20461;-79
2022/03/15 02:05:44;;;;;;;0.50;0.40;;;;;;;-3.86;53.82;101477.66;5032050;28;20045;-79
2022/03/15 02:08:16;;;;;;;0.85;0.50;;;;;;;-4.02;54.25;101449.94;5033636;28;20123;-79
2022/03/15 02:10:43;;;;;;;0.85;0.47;;;;;;;-3.84;53.74;101472.72;5033479;28;20053;-77
2022/03/15 02:13:12;;;;;;;0.50;0.40;;;;;;;-3.86;53.73;101467.47;5041027;28;20124;-79
2022/03/15 02:15:41;;;;;;;0.75;0.50;;;;;;;-3.84;54.10;101477.81;5015281;28;20529;-78
2022/03/15 02:18:07;;;;;;;0.75;0.70;;;;;;;-3.87;54.11;101483.56;5033014;28;20096;-79
2022/03/15 02:20:35;;;;;;;1.08;0.73;;;;;;;-3.92;54.26;101487.34;5033090;28;20536;-78
2022/03/15 02:23:01;;;;;;;0.82;0.30;;;;;;;-3.95;54.01;101492.19;5033029;28;20060;-79
2022/03/15 02:25:28;;;;;;;1.45;0.40;;;;;;;-3.97;53.92;101488.63;5032743;28;20057;-81
2022/03/15 02:27:55;;;;;;;1.58;0.60;;;;;;;-3.96;54.60;101496.41;5033260;28;20073;-79
2022/03/15 02:30:22;;;;;;;1.83;0.50;;;;;;;-3.98;54.58;101499.56;5032869;28;20119;-78
2022/03/15 02:32:49;;;;;;;2.42;0.60;;;;;;;-4.01;54.21;101490.00;5031037;28;20429;-79
2022/03/15 02:35:16;;;;;;;0.85;0.30;;;;;;;-4.02;54.23;101497.50;5032599;28;20057;-80
2022/03/15 02:37:45;;;;;;;2.75;0.73;;;;;;;-4.02;54.41;101513.75;5032539;28;20107;-81
2022/03/15 02:40:12;;;;;;;0.93;0.50;;;;;;;-4.25;54.45;101460.66;5032706;28;20084;-78
2022/03/15 02:42:40;;;;;;;1.38;0.60;;;;;;;-4.14;54.77;101505.00;5031147;28;20071;-78
2022/03/15 02:45:07;;;;;;;1.02;0.40;;;;;;;-4.24;54.57;101492.19;5032696;28;20057;-81
2022/03/15 02:47:34;;;;;;;4.43;0.40;;;;;;;-4.16;54.61;101516.72;5031715;28;20061;-79
2022/03/15 02:50:01;;;;;;;0.63;0.40;;;;;;;-4.22;54.71;101523.84;5032839;28;20061;-78
2022/03/15 02:52:28;;;;;;;1.25;0.40;;;;;;;-4.42;55.17;101484.69;5032718;28;20046;-83
2022/03/15 02:54:58;;;;;;;3.17;0.65;;;;;;;-4.43;55.34;101492.19;5033857;28;20148;-80
2022/03/15 02:57:25;;;;;;;0.95;0.57;;;;;;;-4.45;54.95;101504.84;5032735;28;20104;-80
2022/03/15 02:59:56;;;;;;;2.13;0.80;;;;;;;-4.39;55.22;101525.81;5033233;28;20103;-80
2022/03/15 03:02:22;;;;;;;0.95;0.60;;;;;;;-4.38;55.29;101524.16;5035505;28;20179;-81
2022/03/15 03:04:51;;;;;;;1.77;0.60;;;;;;;-4.47;55.35;101510.53;5036470;28;20049;-80
2022/03/15 03:07:19;;;;;;;1.10;0.65;;;;;;;-4.45;55.69;101524.31;5036502;28;20564;-80
2022/03/15 03:09:47;;;;;;;1.60;0.90;;;;;;;-4.54;55.34;101520.22;5036430;28;20045;-80
2022/03/15 03:12:15;;;;;;;3.58;0.73;;;;;;;-4.52;55.42;101520.34;5036764;28;20106;-80
2022/03/15 03:14:47;;;;;;;1.85;0.90;;;;;;;-4.48;55.73;101531.72;5035330;28;20049;-79
2022/03/15 03:17:14;;;;;;;1.88;0.80;;;;;;;-4.53;55.65;101527.09;5035745;28;20167;-79
2022/03/15 03:19:42;;;;;;;0.60;0.50;;;;;;;-4.61;55.41;101511.88;5035746;28;20055;-80
2022/03/15 03:22:09;;;;;;;3.17;1.05;;;;;;;-4.55;56.00;101537.94;5035905;28;20548;-79
2022/03/15 03:24:35;;;;;;;1.90;0.88;;;;;;;-4.53;55.79;101533.88;5035423;28;20041;-81
2022/03/15 03:27:03;;;;;;;1.85;0.70;;;;;;;-4.65;55.55;101514.91;5035802;28;20049;-79
2022/03/15 03:29:32;;;;;;;0.88;0.70;;;;;;;-4.54;55.83;101529.50;5035396;28;20532;-78
2022/03/15 03:31:59;;;;;;;0.50;0.40;;;;;;;-4.55;55.94;101537.94;5035726;28;20087;-80
2022/03/15 03:34:26;;;;;;;0.93;0.70;;;;;;;-4.58;55.88;101547.84;5035400;28;20050;-79
2022/03/15 03:36:53;;;;;;;3.58;0.80;;;;;;;-4.59;55.95;101554.59;5037856;28;20076;-79
2022/03/15 03:39:26;;;;;;;1.30;0.82;;;;;;;-4.62;56.29;101541.59;5035452;28;20049;-80
2022/03/15 03:41:54;;;;;;;1.85;0.77;;;;;;;-4.61;55.89;101547.56;5034809;28;20057;-80
2022/03/15 03:44:21;;;;;;;1.10;0.63;;;;;;;-4.64;56.14;101550.75;5035215;28;20053;-81
2022/03/15 03:46:48;;;;;;;2.28;1.05;;;;;;;-4.66;56.21;101552.25;5035180;28;20109;-80
2022/03/15 03:49:15;;;;;;;3.38;0.95;;;;;;;-4.68;56.00;101545.22;5034833;28;20470;-80
2022/03/15 03:51:43;;;;;;;2.22;1.05;;;;;;;-4.76;55.92;101549.63;5035112;28;20501;-81
2022/03/15 03:54:10;;;;;;;3.17;0.85;;;;;;;-4.80;56.25;101556.09;5039287;28;20068;-80
2022/03/15 03:56:37;;;;;;;4.05;0.93;;;;;;;-4.72;56.45;101577.19;5050456;28;20053;-80
2022/03/15 03:59:05;;;;;;;0.90;0.90;;;;;;;-4.71;56.22;101579.00;5050134;28;20057;-81
2022/03/15 04:01:32;;;;;;;1.83;0.70;;;;;;;-4.74;56.10;101565.97;5048813;28;20136;-81
2022/03/15 04:04:05;;;;;;;1.25;1.00;;;;;;;-4.72;55.99;101568.66;5028273;28;20046;-82
2022/03/15 04:06:34;;;;;;;1.25;0.73;;;;;;;-4.69;55.91;101581.66;5024083;28;20418;-81
2022/03/15 04:09:01;;;;;;;2.65;1.33;;;;;;;-4.88;56.03;101546.88;5021945;28;20460;-79
2022/03/15 04:11:31;;;;;;;3.67;1.33;;;;;;;-4.63;56.05;101582.25;5026121;28;20395;-81
2022/03/15 04:13:59;;;;;;;3.17;0.90;;;;;;;-4.60;55.99;101587.63;5030242;28;20136;-80
2022/03/15 04:16:29;;;;;;;2.05;0.60;;;;;;;-4.52;56.00;101586.66;5024589;28;20050;-79
2022/03/15 04:18:57;;;;;;;3.22;0.80;;;;;;;-4.62;55.45;101572.19;5023226;28;20053;-80
2022/03/15 04:21:24;;;;;;;2.47;1.00;;;;;;;-4.43;55.86;101579.88;5034402;28;20053;-82
2022/03/15 04:23:54;;;;;;;0.88;0.82;;;;;;;-4.35;55.72;101599.28;5034250;28;20057;-80
2022/03/15 04:26:25;;;;;;;1.23;0.90;;;;;;;-4.37;55.07;101559.09;5035341;28;20160;-80
2022/03/15 04:28:54;;;;;;;3.35;1.42;;;;;;;-4.27;55.05;101594.88;5035174;28;20128;-80
2022/03/15 04:31:22;;;;;;;2.65;0.98;;;;;;;-4.26;55.06;101578.81;5034559;28;20239;-81
2022/03/15 04:33:50;;;;;;;2.53;1.20;;;;;;;-4.06;54.82;101590.81;5031008;28;20055;-82
2022/03/15 04:36:17;;;;;;;4.05;1.13;;;;;;;-4.08;54.73;101569.34;5032286;28;20050;-80
2022/03/15 04:38:46;;;;;;;2.60;1.10;;;;;;;-3.80;54.30;101603.34;5033063;28;20104;-80
2022/03/15 04:41:13;;;;;;;1.98;1.00;;;;;;;-3.76;54.62;101609.63;5029434;28;20049;-79
2022/03/15 04:43:40;;;;;;;3.67;1.50;;;;;;;-3.55;54.08;101611.50;5026509;28;20421;-78
2022/03/15 04:46:07;;;;;;;3.17;1.20;;;;;;;-3.42;53.73;101607.44;5021712;28;20049;-81
2022/03/15 04:48:34;;;;;;;6.45;1.45;;;;;;;-3.40;53.54;101580.38;5015783;28;20046;-79
2022/03/15 04:51:05;;;;;;;2.17;1.55;;;;;;;-3.17;53.17;101621.59;5028682;28;20057;-79
2022/03/15 04:53:32;;;;;;;3.20;1.20;;;;;;;-3.01;53.17;101610.13;5052156;28;20058;-80
2022/03/15 04:55:59;;;;;;;3.28;1.23;;;;;;;-3.13;52.83;101567.41;5034466;28;20081;-79
2022/03/15 04:58:26;;;;;;;3.67;1.20;;;;;;;-3.19;52.57;101571.09;5032577;28;20123;-77
2022/03/15 05:00:54;;;;;;;1.63;1.00;;;;;;;-2.94;52.65;101608.22;5035818;28;20081;-81
2022/03/15 05:03:22;;;;;;;2.65;1.27;;;;;;;-2.79;52.27;101616.31;5038437;28;20072;-77
2022/03/15 05:05:49;;;;;;;6.43;1.25;;;;;;;-2.59;52.05;101619.66;5036542;28;20081;-79
2022/03/15 05:08:17;;;;;;;2.88;1.42;;;;;;;-2.49;51.71;101586.38;5033439;28;20057;-79
2022/03/15 05:13:46;;;;;;;2.40;1.15;;;;;;;-2.20;50.79;101619.50;5033169;28;20112;-79
2022/03/15 05:16:18;;;;;;;2.38;1.23;;;;;;;-2.17;51.07;101611.16;5033330;28;20505;-79
2022/03/15 05:18:49;;;;;;;3.78;1.33;;;;;;;-2.06;50.49;101624.09;5033326;28;20525;-80
2022/03/15 05:21:16;;;;;;;1.35;0.98;;;;;;;-1.98;50.69;101609.38;5033560;28;20111;-78
2022/03/15 05:23:46;;;;;;;3.15;1.50;;;;;;;-1.89;50.42;101612.66;5033043;28;20057;-78
2022/03/15 05:26:15;;;;;;;4.80;1.92;;;;;;;-1.63;50.08;101629.25;5032451;28;20172;-77
2022/03/15 05:28:43;;;;;;;6.13;1.23;;;;;;;-1.57;49.61;101606.69;5031520;28;20465;-79
2022/03/15 05:31:10;;;;;;;3.13;1.60;;;;;;;-1.38;49.77;101609.00;5032149;28;20214;-79
2022/03/15 05:33:38;;;;;;;5.10;1.60;;;;;;;-1.20;49.19;101632.66;5030887;28;20053;-79
2022/03/15 05:36:05;;;;;;;4.45;1.60;;;;;;;-1.25;48.99;101629.75;5031855;28;20501;-80
2022/03/15 05:38:32;;;;;;;4.47;1.75;;;;;;;-1.39;48.74;101594.41;5031728;28;20142;-78
2022/03/15 05:40:59;;;;;;;2.67;1.45;;;;;;;-1.01;48.56;101639.22;5031642;28;20055;-78
2022/03/15 05:43:46;;;;;;;2.58;1.60;;;;;;;-1.01;48.72;101636.66;5031796;28;20137;-78
2022/03/15 05:46:15;;;;;;;4.50;1.65;;;;;;;-0.98;48.48;101627.53;5031246;28;20410;-78
2022/03/15 05:48:42;;;;;;;3.72;1.48;;;;;;;-0.90;48.72;101639.28;5031632;28;20049;-78
2022/03/15 05:51:09;;;;;;;3.20;1.33;;;;;;;-0.97;48.90;101654.97;5029714;28;20513;-78
2022/03/15 05:53:36;;;;;;;7.90;2.22;;;;;;;-0.97;48.45;101629.31;5031507;28;20057;-80
2022/03/15 05:56:04;;;;;;;5.90;1.20;;;;;;;-0.77;48.35;101656.53;5030568;28;20072;-79
2022/03/15 05:58:31;;;;;;;4.82;2.38;;;;;;;-0.63;48.16;101643.06;5031710;28;20064;-79
2022/03/15 06:00:58;;;;;;;5.85;1.80;;;;;;;-0.72;48.28;101654.31;5031334;28;20057;-80
2022/03/15 06:03:26;;;;;;;6.63;1.80;;;;;;;-0.63;48.13;101637.06;5031513;28;20061;-80
2022/03/15 06:05:53;;;;;;;7.95;1.88;;;;;;;-0.63;48.29;101645.63;5031528;28;20104;-77
2022/03/15 06:08:20;;;;;;;2.17;1.30;;;;;;;-0.72;48.37;101649.19;5031701;28;20053;-77
2022/03/15 06:10:47;;;;;;;3.55;1.30;;;;;;;-0.80;48.07;101646.00;5031420;28;20107;-80
2022/03/15 06:13:14;;;;;;;2.38;1.45;;;;;;;-1.09;48.82;101639.53;5031257;28;20509;-79
2022/03/15 06:15:41;;;;;;;2.15;1.33;;;;;;;-0.98;48.79;101658.31;5031080;28;20108;-78
2022/03/15 06:18:08;;;;;;;3.95;1.55;;;;;;;-0.94;49.08;101652.66;5031022;28;20049;-80
2022/03/15 06:20:38;;;;;;;8.77;2.25;;;;;;;-0.74;48.12;101656.75;5031966;28;20501;-81
2022/03/15 06:23:05;;;;;;;5.65;1.40;;;;;;;-0.55;47.94;101648.81;5034456;28;20502;-78
2022/03/15 06:25:32;;;;;;;1.85;1.30;;;;;;;-0.64;47.95;101668.66;5032296;28;20083;-79
2022/03/15 06:27:59;;;;;;;2.83;1.52;;;;;;;-0.64;48.13;101659.25;5029919;28;20049;-81
2022/03/15 06:30:27;;;;;;;2.75;1.80;;;;;;;-0.48;47.75;101650.16;5031678;28;20471;-78
2022/03/15 06:32:54;;;;;;;3.13;1.60;;;;;;;-0.36;47.89;101661.38;5031716;28;20046;-79
2022/03/15 06:35:22;;;;;;;3.47;1.50;;;;;;;-0.24;47.31;101661.41;5031720;28;20152;-83
2022/03/15 06:37:50;;;;;;;3.50;1.55;;;;;;;-0.36;47.33;101632.25;5033314;28;20524;-80
2022/03/15 06:40:21;;;;;;;2.88;1.20;;;;;;;-0.23;46.79;101656.38;5035997;28;20564;-81
2022/03/15 06:42:52;;;;;;;4.00;1.38;;;;;;;-0.10;46.86;101653.06;5034847;28;20053;-79
2022/03/15 06:45:21;;;;;;;1.80;0.95;;;;;;;-0.22;47.00;101655.59;5037032;28;20049;-79
2022/03/15 06:47:48;;;;;;;10.20;2.60;;;;;;;-0.29;47.26;101662.72;5035570;28;20399;-80
2022/03/15 06:50:18;;;;;;;3.73;1.23;;;;;;;-0.17;47.36;101667.88;5034845;28;20465;-78
2022/03/15 06:52:45;;;;;;;1.75;1.50;;;;;;;0.02;46.81;101670.16;5035280;28;20057;-79
2022/03/15 06:55:13;;;;;;;3.92;1.58;;;;;;;0.18;46.54;101662.81;5035221;28;20203;-79
2022/03/15 06:57:41;;;;;;;3.17;1.55;;;;;;;0.06;46.93;101670.50;5036089;28;20053;-78
2022/03/15 07:00:11;;;;;;;2.40;1.40;;;;;;;-0.05;46.84;101667.13;5035250;28;20081;-78
2022/03/15 07:02:38;;;;;;;5.47;1.70;;;;;;;-0.12;46.97;101653.72;5034870;28;20104;-79
2022/03/15 07:05:06;;;;;;;2.13;1.55;;;;;;;-0.12;46.91;101648.59;5034860;28;20299;-79
2022/03/15 07:07:33;;;;;;;3.05;1.67;;;;;;;-0.10;46.87;101667.59;5034098;28;20580;-78
2022/03/15 07:10:05;;;;;;;3.15;1.30;;;;;;;-0.05;46.94;101637.97;5035312;28;20476;-79
2022/03/15 07:12:33;;;;;;;2.60;1.45;;;;;;;0.01;46.60;101664.13;5035736;28;20045;-79
2022/03/15 07:15:03;;;;;;;3.33;1.58;;;;;;;0.03;46.97;101659.13;5033842;28;20057;-80
2022/03/15 07:17:30;;;;;;;7.40;1.85;;;;;;;0.07;46.45;101656.00;5034819;28;20084;-79
2022/03/15 07:19:59;;;;;;;4.15;1.50;;;;;;;0.01;46.68;101647.84;5034996;28;20085;-80
2022/03/15 07:22:27;;;;;;;7.75;1.80;;;;;;;0.18;46.26;101660.25;5033645;28;20057;-79
2022/03/15 07:24:55;;;;;;;4.75;1.70;;;;;;;0.47;45.94;101659.78;5034059;28;20064;-77
2022/03/15 07:27:22;;;;;;;6.85;1.85;;;;;;;0.38;45.71;101636.88;5028269;28;20060;-78
2022/03/15 07:29:49;;;;;;;2.72;1.92;;;;;;;0.29;45.94;101637.91;5024261;28;20065;-79
2022/03/15 07:32:16;;;;;;;4.22;1.63;;;;;;;0.49;46.35;101654.78;5014311;28;20100;-80
2022/03/15 07:34:43;;;;;;;3.78;1.52;;;;;;;0.49;45.69;101644.47;5030128;28;20219;-78
2022/03/15 07:37:10;;;;;;;3.42;1.15;;;;;;;0.46;46.14;101658.00;5050365;28;20084;-78
2022/03/15 07:39:39;;;;;;;2.88;1.08;;;;;;;0.60;46.02;101652.19;5027982;28;20057;-79
2022/03/15 07:42:07;;;;;;;1.48;0.98;;;;;;;0.47;45.52;101661.47;5026333;28;20049;-79
2022/03/15 07:44:35;;;;;;;5.57;1.67;;;;;;;0.35;45.95;101661.50;5024827;28;20798;-78
2022/03/15 07:47:02;;;;;;;4.63;1.92;;;;;;;0.38;45.90;101651.41;5026044;28;20049;-81
2022/03/15 07:49:29;;;;;;;3.58;1.50;;;;;;;0.37;46.13;101665.06;5029681;28;20513;-80
2022/03/15 07:51:57;;;;;;;4.10;1.60;;;;;;;0.24;46.00;101658.13;5028508;28;20076;-80
2022/03/15 07:54:24;;;;;;;4.78;1.55;;;;;;;0.43;45.98;101656.88;5025087;28;20095;-77
2022/03/15 07:56:52;;;;;;;3.92;1.50;;;;;;;0.52;45.06;101634.44;5025141;28;20090;-78
2022/03/15 07:59:21;;;;;;;3.10;1.30;;;;;;;0.57;44.55;101663.94;5024743;28;20057;-79
2022/03/15 08:01:49;;;;;;;1.23;1.13;;;;;;;0.23;45.11;101663.16;5033071;28;20052;-77
2022/03/15 08:04:16;;;;;;;1.42;1.20;;;;;;;0.04;45.64;101671.16;5019387;28;20046;-77
2022/03/15 08:06:43;;;;;;;2.35;0.95;;;;;;;-0.02;44.92;101671.63;5025064;28;20054;-79
2022/03/15 08:09:10;;;;;;;2.72;1.20;;;;;;;-0.01;45.36;101653.72;5025338;28;20115;-77
2022/03/15 08:11:40;;;;;;;4.05;1.30;;;;;;;0.16;45.20;101667.84;5025650;28;20056;-79
2022/03/15 08:14:09;;;;;;;;;;;;;;;0.04;45.59;101663.47;5024588;28;20119;-77
2022/03/15 08:16:37;;;;;;;2.05;0.82;;;;;;;0.05;45.44;101667.84;5023729;28;19961;-78
2022/03/15 08:19:05;;;;;;;2.42;1.88;;;;;;;-0.03;44.92;101654.41;5022986;28;20057;-78
2022/03/15 08:21:33;;;;;;;3.30;1.58;;;;;;;0.17;45.22;101666.16;5022898;28;20509;-79
2022/03/15 08:24:00;;;;;;;3.97;1.50;;;;;;;0.44;44.45;101676.69;5022117;28;20100;-78
2022/03/15 08:26:27;;;;;;;3.95;1.20;;;;;;;0.39;44.64;101668.66;5022241;28;20077;-77
2022/03/15 08:28:54;;;;;;;3.63;1.55;;;;;;;0.44;44.56;101674.13;5023587;28;20466;-79
2022/03/15 08:31:21;;;;;;;3.80;1.58;;;;;;;0.52;44.57;101667.88;5022294;28;20095;-81
2022/03/15 08:33:49;;;;;;;3.50;1.35;;;;;;;0.54;44.00;101654.31;5024028;28;20079;-78
2022/03/15 08:36:17;;;;;;;5.30;1.30;;;;;;;0.64;44.26;101653.28;5028005;28;20108;-78
2022/03/15 08:38:45;;;;;;;3.42;1.42;;;;;;;0.65;43.99;101641.34;5023795;28;20054;-81
2022/03/15 08:41:12;;;;;;;2.67;1.60;;;;;;;0.77;44.29;101644.78;5022644;28;20568;-77
2022/03/15 08:43:39;;;;;;;2.53;1.30;;;;;;;0.81;44.04;101646.78;5023424;28;20045;-79
2022/03/15 08:46:06;;;;;;;1.58;1.30;;;;;;;0.72;43.79;101643.56;5022832;28;20054;-79
2022/03/15 08:48:38;;;;;;;2.58;1.25;;;;;;;0.76;44.08;101636.19;5022474;28;20532;-81
2022/03/15 08:51:05;;;;;;;1.73;1.35;;;;;;;1.02;43.58;101644.84;5031494;28;20144;-79
2022/03/15 08:53:32;;;;;;;4.20;1.40;;;;;;;1.00;43.44;101631.84;5033687;28;20069;-78
2022/03/15 08:56:01;;;;;;;4.97;1.73;;;;;;;1.11;43.59;101649.75;5036434;28;20122;-80
2022/03/15 08:58:27;;;;;;;1.65;1.08;;;;;;;1.15;43.20;101644.91;5035475;28;20046;-80
2022/03/15 09:00:55;;;;;;;5.13;1.40;;;;;;;1.27;43.12;101642.31;5024578;28;20049;-78
2022/03/15 09:03:23;;;;;;;2.45;1.50;;;;;;;1.31;42.96;101643.38;5023471;28;20058;-77
2022/03/15 09:05:51;;;;;;;2.05;1.20;;;;;;;1.39;42.63;101650.84;5023381;28;20435;-79
2022/03/15 09:08:22;;;;;;;2.22;1.50;;;;;;;1.46;42.20;101643.56;5023306;28;20049;-78
2022/03/15 09:10:50;;;;;;;3.33;1.70;;;;;;;1.57;42.28;101642.59;5022924;28;20066;-79
2022/03/15 09:13:17;;;;;;;2.40;1.40;;;;;;;1.53;42.08;101636.34;5033474;28;20060;-79
2022/03/15 09:15:44;;;;;;;4.95;1.88;;;;;;;1.39;42.59;101656.00;5032980;28;20057;-79
2022/03/15 09:18:12;;;;;;;1.48;1.20;;;;;;;1.09;42.29;101629.03;5033002;28;20081;-78
2022/03/15 09:20:39;;;;;;;1.73;1.20;;;;;;;1.19;42.27;101648.59;5015495;28;20046;-80
2022/03/15 09:23:07;;;;;;;2.63;1.25;;;;;;;1.41;42.48;101645.81;5032961;28;20088;-78
2022/03/15 09:25:37;;;;;;;3.35;1.90;;;;;;;1.78;42.13;101641.47;5032879;28;20076;-79
2022/03/15 09:28:04;;;;;;;1.77;1.33;;;;;;;1.86;41.57;101639.41;5032765;28;20107;-78
2022/03/15 09:30:32;;;;;;;3.03;1.30;;;;;;;1.95;41.52;101641.72;5033039;28;20148;-79
2022/03/15 09:33:00;;;;;;;1.33;1.10;;;;;;;1.86;40.86;101648.84;5031772;28;20049;-79
2022/03/15 09:35:27;;;;;;;2.85;1.20;;;;;;;1.60;40.99;101641.13;5032660;28;20053;-79
2022/03/15 09:37:54;;;;;;;4.53;1.55;;;;;;;1.42;41.05;101627.03;5032606;28;20058;-81
2022/03/15 09:40:25;;;;;;;3.55;1.30;;;;;;;1.65;41.30;101644.00;5032601;28;20140;-79
2022/03/15 09:43:03;;;;;;;2.67;1.48;;;;;;;1.74;40.77;101643.72;5033299;28;20115;-78
2022/03/15 09:45:34;;;;;;;1.92;1.23;;;;;;;1.77;40.97;101634.53;5032964;28;20148;-80
2022/03/15 09:48:04;;;;;;;1.10;1.00;;;;;;;1.79;40.48;101653.56;5032811;28;20064;-79
2022/03/15 09:50:31;;;;;;;2.28;1.33;;;;;;;1.68;40.84;101628.78;5032730;28;20111;-81
2022/03/15 09:52:59;;;;;;;1.52;0.88;;;;;;;1.51;40.72;101596.72;5032458;28;20107;-80
2022/03/15 09:55:27;;;;;;;2.55;1.40;;;;;;;1.56;40.98;101623.66;5032963;28;20060;-78
2022/03/15 09:57:55;;;;;;;1.52;1.10;;;;;;;1.82;40.45;101645.16;5032446;28;20057;-79
2022/03/15 10:00:24;;;;;;;1.52;1.27;;;;;;;1.96;40.33;101622.88;5032894;28;20155;-77
2022/03/15 10:02:51;;;;;;;3.22;1.35;;;;;;;2.14;39.93;101636.97;5032975;28;20060;-81
2022/03/15 10:05:19;;;;;;;3.20;1.85;;;;;;;2.24;39.56;101613.56;5032983;28;20053;-79
2022/03/15 10:07:46;;;;;;;3.97;1.70;;;;;;;2.58;39.22;101641.56;5032548;28;20559;-78
2022/03/15 10:10:14;;;;;;;4.75;1.75;;;;;;;2.67;39.16;101641.25;5032441;28;20057;-78
2022/03/15 10:12:42;;;;;;;13.80;1.77;;;;;;;2.70;38.93;101633.69;5033819;28;20053;-79
2022/03/15 10:15:16;;;;;;;4.03;1.35;;;;;;;2.48;38.88;101640.88;5036562;28;20061;-78
2022/03/15 10:17:55;;;;;;;3.58;1.55;;;;;;;2.34;39.39;101653.72;5036615;28;20108;-78
2022/03/15 10:20:31;;;;;;;3.15;1.20;;;;;;;2.07;39.82;101614.16;5036645;28;20064;-79
2022/03/15 10:23:00;;;;;;;3.83;1.73;;;;;;;2.25;39.59;101641.13;5021891;28;20057;-78
2022/03/15 10:25:34;;;;;;;2.25;1.33;;;;;;;2.26;39.45;101634.31;5036093;28;20046;-79
2022/03/15 10:28:05;;;;;;;4.57;1.38;;;;;;;2.41;38.83;101627.56;5036392;28;20081;-79
2022/03/15 10:30:34;;;;;;;3.58;1.63;;;;;;;2.54;38.31;101634.41;5038115;28;20084;-80
2022/03/15 10:33:02;;;;;;;2.85;1.08;;;;;;;2.58;38.77;101645.78;5037496;28;20065;-79
2022/03/15 10:35:31;;;;;;;2.75;1.30;;;;;;;2.46;38.64;101643.34;5035265;28;20057;-79
2022/03/15 10:37:59;;;;;;;1.80;1.20;;;;;;;2.29;39.23;101636.19;5036747;28;20084;-80
2022/03/15 10:40:35;;;;;;;2.20;1.38;;;;;;;2.18;38.94;101632.91;5035958;28;20084;-79
2022/03/15 10:43:06;;;;;;;3.58;1.80;;;;;;;2.25;39.14;101627.34;5036191;28;20045;-78
2022/03/15 10:45:34;;;;;;;2.05;1.33;;;;;;;2.46;38.62;101633.91;5036441;28;20107;-79
2022/03/15 10:48:11;;;;;;;2.88;1.50;;;;;;;2.37;38.27;101619.53;5036092;28;20053;-82
2022/03/15 10:50:59;;;;;;;3.08;1.63;;;;;;;2.18;38.04;101620.03;5036091;28;20509;-80
2022/03/15 10:53:44;;;;;;;4.80;2.20;;;;;;;1.77;38.21;101546.03;5036541;28;20056;-81
2022/03/15 10:56:13;;;;;;;7.10;2.53;;;;;;;2.30;37.98;101632.81;5036615;28;20095;-79
2022/03/15 10:59:04;;;;;;;4.18;1.98;;;;;;;2.47;37.71;101619.31;5036735;28;20429;-81
2022/03/15 11:01:40;;;;;;;3.10;1.92;;;;;;;2.42;37.88;101618.13;5037023;28;20075;-82
2022/03/15 11:04:09;;;;;;;2.75;1.88;;;;;;;2.54;37.94;101615.44;5036607;28;20042;-81
2022/03/15 11:06:38;;;;;;;3.67;2.13;;;;;;;2.63;37.54;101616.03;5036705;28;20053;-81
2022/03/15 11:09:31;;;;;;;3.35;1.38;;;;;;;2.60;37.34;101627.06;5036363;28;20050;-80
2022/03/15 11:12:02;;;;;;;2.80;1.33;;;;;;;2.70;37.51;101622.47;5037172;28;20084;-79
2022/03/15 11:14:57;;;;;;;2.28;1.50;;;;;;;2.73;37.13;101613.25;5036388;28;20057;-80
2022/03/15 11:17:26;;;;;;;3.75;1.38;;;;;;;2.74;37.45;101625.34;5035947;28;20258;-80
2022/03/15 11:19:58;;;;;;;1.83;1.20;;;;;;;2.84;37.37;101614.81;5035591;28;20045;-80
2022/03/15 11:22:28;;;;;;;1.17;1.00;;;;;;;2.89;37.05;101615.09;5035464;28;20059;-79
2022/03/15 11:25:40;;;;;;;4.32;1.55;;;;;;;2.93;36.77;101613.59;5035356;28;20060;-83
2022/03/15 11:28:28;;;;;;;1.77;0.90;;;;;;;2.56;36.67;101614.75;5012282;28;20058;-80
2022/03/15 11:30:57;;;;;;;3.38;1.58;;;;;;;2.34;37.70;101609.88;5036936;28;20062;-80
2022/03/15 11:33:26;;;;;;;5.20;1.40;;;;;;;2.42;37.73;101620.72;5046069;28;20057;-79
2022/03/15 11:35:53;;;;;;;2.80;1.10;;;;;;;2.55;37.71;101614.66;5045067;28;20098;-80
2022/03/15 11:38:21;;;;;;;2.63;1.20;;;;;;;2.78;36.81;101609.25;5047642;28;20053;-80